Řízení letového provozu České republiky
Letiste: LKPR Aktualizace: 16.10.2019 00:30:30  UTC
 METAR LKPR 16.10. 00:30 ...
METAR LKPR 160030Z 20005KT 6000 FEW009 BKN010 10/09 Q1008 BECMG 3000 BR BKN007 RMK REG QNH 1006=
 TAF LKPR 15.10. 23:00 AAA
TAF AMD LKPR 152330Z 1600/1706 24013KT 9999 SCT030      TEMPO 1600/1602 3000 BR BKN007      BECMG 1602/1604 6000 BKN025      TEMPO 1604/1617 25014G25KT 7000 RA BKN014      BECMG 1617/1619 CAVOK      BECMG 1700/1703 19005KT=